Time;durP1;ratioP1;P1;durP2;ratioP2;P2;SDS_P1;SDS_P2;PMS_P1;PMS_P2;Temp;Humidity;BMP_temperature;BMP_pressure;BME280_temperature;BME280_humidity;BME280_pressure;Samples;Min_cycle;Max_cycle;Signal;HPM_P1;HPM_P2
2022/12/30 00:08:50;;;;;;;3.20;0.60;;;7.00;99.90;;;;;;6362039;22;20025;-91
2022/12/30 00:34:25;;;;;;;6.20;0.68;;;6.90;99.90;;;;;;6398876;22;20026;-91
2022/12/30 01:04:57;;;;;;;7.13;1.42;;;6.80;99.90;;;;;;6400967;22;20018;-93
2022/12/30 01:07:23;;;;;;;9.90;1.40;;;6.80;99.90;;;;;;6348117;22;20018;-92
2022/12/30 01:09:48;;;;;;;2.37;1.00;;;6.70;99.90;;;;;;6374449;22;20021;-95
2022/12/30 01:12:26;;;;;;;7.73;1.20;;;6.70;99.90;;;;;;6374546;22;20017;-95
2022/12/30 01:20:05;;;;;;;5.30;0.75;;;6.70;99.90;;;;;;6369133;22;20022;-92
2022/12/30 01:22:31;;;;;;;6.65;1.00;;;6.70;99.90;;;;;;6314342;22;20325;-94
2022/12/30 01:24:56;;;;;;;5.60;1.07;;;6.60;99.90;;;;;;6315854;22;20014;-94
2022/12/30 01:27:22;;;;;;;5.67;0.80;;;6.60;99.90;;;;;;6316167;22;20075;-93
2022/12/30 01:29:48;;;;;;;4.13;0.70;;;6.60;99.90;;;;;;6315811;22;20462;-92
2022/12/30 01:32:20;;;;;;;3.13;0.77;;;6.60;99.90;;;;;;6316618;22;20462;-93
2022/12/30 01:45:27;;;;;;;6.45;0.80;;;6.60;99.90;;;;;;6400204;22;20032;-93
2022/12/30 01:48:01;;;;;;;5.93;0.98;;;6.50;99.90;;;;;;6376355;22;20018;-95
2022/12/30 01:50:37;;;;;;;6.38;0.88;;;6.50;99.90;;;;;;6402397;22;20025;-93
2022/12/30 01:53:06;;;;;;;4.20;0.70;;;6.50;99.90;;;;;;6375957;22;20024;-94
2022/12/30 02:06:27;;;;;;;5.78;0.70;;;6.40;99.90;;;;;;6402158;22;20032;-93
2022/12/30 02:09:20;;;;;;;10.70;1.35;;;6.40;99.90;;;;;;6376054;22;20045;-92
2022/12/30 02:11:57;;;;;;;5.97;0.75;;;6.50;99.90;;;;;;6375732;22;20055;-91
2022/12/30 02:14:37;;;;;;;5.95;1.05;;;6.50;99.90;;;;;;6349389;22;20166;-92
2022/12/30 02:17:40;;;;;;;5.53;0.88;;;6.50;99.90;;;;;;6375118;22;20014;-91
2022/12/30 02:25:20;;;;;;;5.93;1.10;;;6.50;99.90;;;;;;6398061;22;20022;-93
2022/12/30 02:27:58;;;;;;;7.60;1.23;;;6.50;99.90;;;;;;6375530;22;20028;-92
2022/12/30 02:30:49;;;;;;;7.57;0.82;;;6.50;99.90;;;;;;6374938;22;20025;-91
2022/12/30 02:33:44;;;;;;;4.97;1.15;;;6.50;99.90;;;;;;6375297;22;20010;-93
2022/12/30 02:36:31;;;;;;;2.60;0.73;;;6.50;99.90;;;;;;6254426;22;20023;-92
2022/12/30 04:21:13;;;;;;;8.07;1.13;;;6.00;99.90;;;;;;6396242;22;20018;-93
2022/12/30 04:26:14;;;;;;;4.88;0.98;;;6.00;99.90;;;;;;6366955;22;20022;-93
2022/12/30 04:29:07;;;;;;;6.77;0.77;;;6.00;99.90;;;;;;6344758;22;20018;-93
2022/12/30 04:31:33;;;;;;;4.28;0.73;;;6.00;99.90;;;;;;6317986;22;20443;-91
2022/12/30 04:33:59;;;;;;;5.47;1.00;;;5.90;99.90;;;;;;6287503;22;20018;-93
2022/12/30 04:39:54;;;;;;;8.25;1.05;;;5.90;99.90;;;;;;6335952;22;20101;-92
2022/12/30 04:42:20;;;;;;;10.83;1.37;;;5.90;99.90;;;;;;6288834;22;20080;-92
2022/12/30 04:44:46;;;;;;;8.03;1.23;;;5.90;99.90;;;;;;6317991;22;20021;-93
2022/12/30 04:47:11;;;;;;;10.30;1.30;;;5.80;99.90;;;;;;6317856;22;20019;-93
2022/12/30 04:49:37;;;;;;;2.90;1.00;;;5.90;99.90;;;;;;6261524;22;20042;-92
2022/12/30 04:52:18;;;;;;;4.77;1.20;;;5.90;99.90;;;;;;6287238;22;20015;-91
2022/12/30 04:54:43;;;;;;;5.07;1.02;;;5.90;99.90;;;;;;6313153;22;20050;-93
2022/12/30 04:57:47;;;;;;;5.53;1.10;;;5.90;99.90;;;;;;6313065;22;20015;-96
2022/12/30 05:00:35;;;;;;;5.13;1.10;;;5.80;99.90;;;;;;6250741;22;20021;-92
2022/12/30 05:51:04;;;;;;;6.82;1.98;;;6.00;99.90;;;;;;6371591;22;20026;-91
2022/12/30 05:53:31;;;;;;;10.13;2.10;;;6.00;99.90;;;;;;6265144;22;20083;-90
2022/12/30 05:55:59;;;;;;;;;;;6.00;99.90;;;;;;6318114;22;20011;-95
2022/12/30 05:58:55;;;;;;;6.47;1.70;;;6.00;99.90;;;;;;6317357;22;19966;-93
2022/12/30 06:02:13;;;;;;;5.03;1.55;;;6.00;99.90;;;;;;6313715;22;20018;-92
2022/12/30 06:04:38;;;;;;;6.47;1.70;;;6.10;99.90;;;;;;6241851;22;20014;-91
2022/12/30 06:07:32;;;;;;;5.30;1.73;;;6.10;99.90;;;;;;6316863;22;20018;-95
2022/12/30 06:10:02;;;;;;;4.93;1.90;;;6.00;99.90;;;;;;6316807;22;20018;-92
2022/12/30 06:12:28;;;;;;;6.93;1.48;;;6.00;99.90;;;;;;6316981;22;20093;-92
2022/12/30 06:18:42;;;;;;;5.30;1.50;;;6.00;99.90;;;;;;6315697;22;20102;-92
2022/12/30 06:21:08;;;;;;;4.80;1.43;;;6.00;99.90;;;;;;6348444;22;20018;-91
2022/12/30 06:23:34;;;;;;;6.80;1.80;;;6.00;99.90;;;;;;6374739;22;20016;-92
2022/12/30 07:29:31;;;;;;;5.63;1.13;;;5.30;99.90;;;;;;6402310;22;20017;-95
2022/12/30 07:31:57;;;;;;;3.47;0.73;;;5.30;99.90;;;;;;6376437;22;20018;-91
2022/12/30 07:34:37;;;;;;;7.22;1.15;;;5.30;99.90;;;;;;6376510;22;20327;-91
2022/12/30 07:39:38;;;;;;;9.13;1.90;;;5.20;99.90;;;;;;6372242;22;20049;-92
2022/12/30 07:42:23;;;;;;;5.03;0.80;;;5.20;99.90;;;;;;6313327;22;20019;-92
2022/12/30 07:44:49;;;;;;;4.13;1.02;;;5.20;99.90;;;;;;6302597;22;20019;-93
2022/12/30 07:47:18;;;;;;;2.60;0.70;;;5.20;99.90;;;;;;6313524;22;20331;-92
2022/12/30 07:49:44;;;;;;;3.28;0.82;;;5.20;99.90;;;;;;6318553;22;20090;-92
2022/12/30 07:52:09;;;;;;;2.80;0.80;;;5.10;99.90;;;;;;6318442;22;20506;-94
2022/12/30 07:54:43;;;;;;;5.90;1.37;;;5.10;99.90;;;;;;6318693;22;20063;-93
2022/12/30 07:57:20;;;;;;;4.57;1.25;;;5.10;99.90;;;;;;6318715;22;20050;-94
2022/12/30 07:59:46;;;;;;;;;;;5.00;99.90;;;;;;6319334;22;20439;-94
2022/12/30 08:02:12;;;;;;;4.18;0.90;;;5.00;99.90;;;;;;6318675;22;19963;-95
2022/12/30 08:04:55;;;;;;;5.75;0.85;;;5.10;99.90;;;;;;6318617;22;20011;-94
2022/12/30 08:07:28;;;;;;;3.65;0.80;;;5.00;99.90;;;;;;6289076;22;20448;-93
2022/12/30 08:09:53;;;;;;;3.00;0.82;;;5.00;99.90;;;;;;6318239;22;20049;-94
2022/12/30 08:12:19;;;;;;;4.17;1.13;;;5.00;99.90;;;;;;6288838;22;20015;-92
2022/12/30 08:14:48;;;;;;;2.27;0.70;;;4.90;99.90;;;;;;6318809;22;20018;-93
2022/12/30 08:17:30;;;;;;;2.53;0.80;;;5.00;99.90;;;;;;6317893;22;20071;-94
2022/12/30 08:19:56;;;;;;;6.43;0.80;;;5.00;99.90;;;;;;6286504;22;20534;-93
2022/12/30 08:22:25;;;;;;;4.93;1.20;;;4.90;99.90;;;;;;6311503;22;20050;-93
2022/12/30 08:24:50;;;;;;;6.97;1.20;;;5.00;99.90;;;;;;6318303;22;20010;-93
2022/12/30 08:27:16;;;;;;;3.83;0.80;;;5.00;99.90;;;;;;6287724;22;20090;-93
2022/12/30 08:29:45;;;;;;;5.30;0.60;;;5.00;99.90;;;;;;6287175;22;20014;-95
2022/12/30 08:32:29;;;;;;;3.05;0.88;;;5.10;99.90;;;;;;6325335;22;20021;-94
2022/12/30 08:34:54;;;;;;;8.73;1.67;;;5.10;99.90;;;;;;6287299;22;20015;-93
2022/12/30 08:38:00;;;;;;;8.40;1.43;;;5.10;99.90;;;;;;6284828;22;20108;-95
2022/12/30 08:40:34;;;;;;;5.25;1.27;;;5.10;99.90;;;;;;6283445;22;20094;-92
2022/12/30 08:43:00;;;;;;;3.43;0.80;;;5.10;99.90;;;;;;6281844;22;20054;-93
2022/12/30 08:45:26;;;;;;;3.70;0.80;;;5.20;99.90;;;;;;6282337;22;20467;-92
2022/12/30 08:47:52;;;;;;;4.60;0.80;;;5.20;99.90;;;;;;6281901;22;20017;-93
2022/12/30 08:50:18;;;;;;;7.37;1.47;;;5.20;99.90;;;;;;6282403;22;20050;-93
2022/12/30 08:52:44;;;;;;;4.53;0.97;;;5.20;99.90;;;;;;6282045;22;20019;-91
2022/12/30 08:55:35;;;;;;;5.03;1.30;;;5.20;99.90;;;;;;6281958;22;20015;-92
2022/12/30 08:58:38;;;;;;;2.53;0.70;;;5.30;99.90;;;;;;6282060;22;20054;-94
2022/12/30 09:01:24;;;;;;;5.50;0.90;;;5.30;99.90;;;;;;6289624;22;20046;-94
2022/12/30 09:03:54;;;;;;;3.55;0.70;;;5.30;99.90;;;;;;6285896;22;20072;-94
2022/12/30 09:06:35;;;;;;;5.45;1.13;;;5.30;99.90;;;;;;6289227;22;20340;-95
2022/12/30 09:09:20;;;;;;;1.92;0.60;;;5.30;99.90;;;;;;6283724;22;20019;-93
2022/12/30 09:12:37;;;;;;;7.47;0.98;;;5.40;99.90;;;;;;6295870;22;20042;-95
2022/12/30 09:15:31;;;;;;;4.53;0.90;;;5.40;99.90;;;;;;6218888;23;20024;-95
2022/12/30 09:47:50;;;;;;;8.77;0.80;;;5.60;99.90;;;;;;6376056;22;20022;-95
2022/12/30 19:41:26;;;;;;;8.82;2.80;;;10.90;99.90;;;;;;6382389;22;20022;-93
2022/12/30 19:44:01;;;;;;;6.72;2.47;;;10.90;99.90;;;;;;6375519;22;20022;-93
